createdAt,value
2023-05-18T00:00:00.038Z,15.1
2023-05-18T00:01:16.289Z,14.8
2023-05-18T00:02:32.531Z,14.5
2023-05-18T00:03:47.849Z,14.7
2023-05-18T00:05:04.099Z,14.6
2023-05-18T00:06:20.349Z,14.5
2023-05-18T00:07:36.598Z,14.3
2023-05-18T00:08:52.851Z,14
2023-05-18T00:10:09.088Z,13.8
2023-05-18T00:11:25.341Z,14.2
2023-05-18T00:12:41.591Z,13.3
2023-05-18T00:13:57.846Z,13.6
2023-05-18T00:15:14.099Z,13.9
2023-05-18T00:16:30.345Z,13.7
2023-05-18T00:17:46.592Z,15.1
2023-05-18T00:19:02.846Z,13.6
2023-05-18T00:20:18.152Z,14.8
2023-05-18T00:21:34.407Z,14.6
2023-05-18T00:22:50.650Z,15.1
2023-05-18T00:24:06.903Z,14.3
2023-05-18T00:25:23.153Z,14.7
2023-05-18T00:26:39.403Z,13.6
2023-05-18T00:27:55.657Z,14.3
2023-05-18T00:29:11.904Z,13.5
2023-05-18T00:30:28.156Z,13.6
2023-05-18T00:31:44.405Z,12.9
2023-05-18T00:33:00.657Z,13.1
2023-05-18T00:34:16.901Z,12.7
2023-05-18T00:35:33.153Z,12.9
2023-05-18T00:36:48.455Z,12.7
2023-05-18T00:38:04.708Z,12.7
2023-05-18T00:39:20.960Z,12.8
2023-05-18T00:40:37.208Z,12
2023-05-18T00:41:53.470Z,12.3
2023-05-18T00:43:09.719Z,12.1
2023-05-18T00:44:25.955Z,12.6
2023-05-18T00:45:42.224Z,12.5
2023-05-18T00:46:58.467Z,12.6
2023-05-18T00:48:14.714Z,12.1
2023-05-18T00:49:30.989Z,12.1
2023-05-18T00:50:47.209Z,12
2023-05-18T00:52:03.467Z,12.6
2023-05-18T00:53:18.773Z,12.3
2023-05-18T00:54:35.028Z,12.2
2023-05-18T00:55:51.279Z,12.2
2023-05-18T00:57:07.525Z,12
2023-05-18T00:58:23.776Z,12
2023-05-18T00:59:40.021Z,11.9
2023-05-18T01:00:56.281Z,12.5
2023-05-18T01:02:12.524Z,12.4
2023-05-18T01:03:28.777Z,11.4
2023-05-18T01:04:45.023Z,11.5
2023-05-18T01:06:01.277Z,11.6
2023-05-18T01:07:17.524Z,12
2023-05-18T01:08:33.777Z,11.5
2023-05-18T01:09:49.080Z,12
2023-05-18T01:11:05.332Z,11.5
2023-05-18T01:12:21.590Z,11.8
2023-05-18T01:13:37.838Z,11.4
2023-05-18T01:14:54.086Z,11.6
2023-05-18T01:16:10.333Z,11.8
2023-05-18T01:17:26.583Z,11.8
2023-05-18T01:18:42.836Z,11
2023-05-18T01:19:59.091Z,11.8
2023-05-18T01:21:10.000Z,10.9
2023-05-18T01:22:31.609Z,11
2023-05-18T01:23:47.846Z,11.7
2023-05-18T01:24:59.000Z,10.6
2023-05-18T01:26:19.391Z,11.4
2023-05-18T01:27:35.644Z,11
2023-05-18T01:28:51.904Z,10.9
2023-05-18T01:30:08.155Z,10.2
2023-05-18T01:31:24.394Z,11
2023-05-18T01:32:40.659Z,10.2
2023-05-18T01:33:56.902Z,10.5
2023-05-18T01:35:13.150Z,10.4
2023-05-18T01:36:29.397Z,10.7
2023-05-18T01:37:45.645Z,10.7
2023-05-18T01:39:01.899Z,10.9
2023-05-18T01:40:18.151Z,10.8
2023-05-18T01:41:34.397Z,10.7
2023-05-18T01:42:49.715Z,10.9
2023-05-18T01:44:05.959Z,10.6
2023-05-18T01:45:22.205Z,10.7
2023-05-18T01:46:38.460Z,10.6
2023-05-18T01:47:54.709Z,10.5
2023-05-18T01:49:10.965Z,10.4
2023-05-18T01:50:26.280Z,10.2
2023-05-18T01:51:42.532Z,10.6
2023-05-18T01:52:58.784Z,10
2023-05-18T01:54:15.027Z,10.4
2023-05-18T01:55:31.283Z,10.1
2023-05-18T01:56:47.534Z,10.4
2023-05-18T01:58:03.781Z,10.3
2023-05-18T01:59:20.035Z,10
2023-05-18T02:00:36.281Z,10.4
2023-05-18T02:01:52.529Z,10
2023-05-18T02:03:08.780Z,10.3
2023-05-18T02:04:25.029Z,10.1
2023-05-18T02:05:41.277Z,10
2023-05-18T02:06:56.580Z,9.7
2023-05-18T02:08:12.837Z,9.8
2023-05-18T02:09:29.085Z,10
2023-05-18T02:10:45.332Z,10.1
2023-05-18T02:12:01.580Z,9.8
2023-05-18T02:13:17.834Z,9.9
2023-05-18T02:14:34.079Z,9.7
2023-05-18T02:15:50.325Z,9.7
2023-05-18T02:17:06.576Z,9.8
2023-05-18T02:18:22.825Z,9.5
2023-05-18T02:19:39.073Z,9.8
2023-05-18T02:20:55.320Z,9.8
2023-05-18T02:22:11.567Z,10
2023-05-18T02:23:26.879Z,9.7
2023-05-18T02:24:43.129Z,9.6
2023-05-18T02:25:59.375Z,9.7
2023-05-18T02:27:15.630Z,9.6
2023-05-18T02:28:31.873Z,9.9
2023-05-18T02:29:48.126Z,9.5
2023-05-18T02:31:04.390Z,9.9
2023-05-18T02:32:20.624Z,9.1
2023-05-18T02:33:36.871Z,9.6
2023-05-18T02:34:53.126Z,9.3
2023-05-18T02:36:09.369Z,9.3
2023-05-18T02:37:25.633Z,9.5
2023-05-18T02:38:41.874Z,9.6
2023-05-18T02:39:57.174Z,9.4
2023-05-18T02:41:13.424Z,9.7
2023-05-18T02:42:29.689Z,9.5
2023-05-18T02:43:45.927Z,9.4
2023-05-18T02:45:02.168Z,9.1
2023-05-18T02:46:18.422Z,9.7
2023-05-18T02:47:34.662Z,9.6
2023-05-18T02:48:50.920Z,9.2
2023-05-18T02:50:07.174Z,9.4
2023-05-18T02:51:23.413Z,9
2023-05-18T02:52:39.662Z,9.4
2023-05-18T02:53:55.916Z,9.2
2023-05-18T02:55:12.164Z,9.1
2023-05-18T02:56:28.408Z,9.4
2023-05-18T02:57:44.658Z,9.2
2023-05-18T02:58:59.964Z,9.5
2023-05-18T03:00:11.000Z,9.9
2023-05-18T03:01:32.471Z,9.2
2023-05-18T03:02:48.713Z,9.4
2023-05-18T03:04:04.960Z,9
2023-05-18T03:05:21.209Z,9.4
2023-05-18T03:06:37.459Z,9.5
2023-05-18T03:07:53.712Z,9.1
2023-05-18T03:09:09.951Z,9
2023-05-18T03:10:26.209Z,8.8
2023-05-18T03:11:37.000Z,9.1
2023-05-18T03:12:58.704Z,9.1
2023-05-18T03:15:31.198Z,9.2
2023-05-18T03:16:46.495Z,9.1
2023-05-18T03:17:57.000Z,9.4
2023-05-18T03:19:19.008Z,9.1
2023-05-18T03:20:35.244Z,8.9
2023-05-18T03:21:51.497Z,9.1
2023-05-18T03:23:07.745Z,9.3
2023-05-18T03:24:23.997Z,9.6
2023-05-18T03:25:40.241Z,9.4
2023-05-18T03:26:56.491Z,9.1
2023-05-18T03:28:07.000Z,9
2023-05-18T03:29:24.000Z,9
2023-05-18T03:30:40.000Z,9.1
2023-05-18T03:32:01.492Z,9.3
2023-05-18T03:33:16.792Z,9.4
2023-05-18T03:34:33.038Z,9.1
2023-05-18T03:35:49.286Z,9.2
2023-05-18T03:37:05.539Z,8.8
2023-05-18T03:38:21.785Z,8.7
2023-05-18T03:39:38.036Z,9.2
2023-05-18T03:40:54.287Z,8.8
2023-05-18T03:42:10.537Z,9
2023-05-18T03:43:21.000Z,9.1
2023-05-18T03:44:43.032Z,8.7
2023-05-18T03:45:59.288Z,9
2023-05-18T03:47:15.530Z,8.8
2023-05-18T03:48:31.789Z,9.6
2023-05-18T03:49:48.031Z,8.9
2023-05-18T03:51:03.326Z,9.4
2023-05-18T03:52:19.581Z,9.7
2023-05-18T03:53:35.826Z,9.3
2023-05-18T03:54:52.074Z,9.5
2023-05-18T03:56:08.324Z,9.4
2023-05-18T03:57:24.576Z,9.5
2023-05-18T03:58:40.822Z,9.8
2023-05-18T03:59:57.071Z,9.3
2023-05-18T04:01:13.321Z,10.2
2023-05-18T04:02:29.569Z,10.2
2023-05-18T04:03:45.823Z,10.1
2023-05-18T04:05:02.061Z,9.7
2023-05-18T04:06:18.312Z,9.9
2023-05-18T04:07:33.620Z,10.3
2023-05-18T04:10:06.128Z,10.1
2023-05-18T04:11:22.372Z,10.4
2023-05-18T04:12:38.617Z,10.1
2023-05-18T04:13:54.870Z,10.5
2023-05-18T04:15:11.112Z,10.3
2023-05-18T04:16:27.363Z,10.6
2023-05-18T04:17:43.611Z,11.6
2023-05-18T04:18:59.867Z,10.9
2023-05-18T04:20:11.000Z,10.7
2023-05-18T04:21:32.361Z,10.9
2023-05-18T04:22:48.611Z,10.5
2023-05-18T04:24:04.855Z,11.1
2023-05-18T04:25:20.148Z,10.3
2023-05-18T04:26:36.401Z,10.7
2023-05-18T04:27:52.652Z,10.4
2023-05-18T04:29:08.900Z,10.5
2023-05-18T04:30:25.143Z,10.7
2023-05-18T04:31:41.394Z,10.5
2023-05-18T04:32:57.651Z,9.9
2023-05-18T04:34:13.887Z,10.6
2023-05-18T04:35:25.000Z,10.5
2023-05-18T04:36:46.392Z,10.3
2023-05-18T04:38:02.656Z,10.7
2023-05-18T04:39:18.890Z,10.5
2023-05-18T04:40:35.135Z,10.5
2023-05-18T04:41:50.445Z,10.2
2023-05-18T04:43:06.694Z,10.7
2023-05-18T04:44:22.939Z,10.4
2023-05-18T04:45:39.197Z,10.7
2023-05-18T04:46:55.443Z,10.5
2023-05-18T04:48:11.689Z,10.6
2023-05-18T04:49:27.944Z,10.7
2023-05-18T04:50:44.181Z,11.1
2023-05-18T04:52:00.441Z,11.1
2023-05-18T04:53:16.686Z,10.6
2023-05-18T04:54:32.934Z,11.2
2023-05-18T04:55:49.183Z,10.9
2023-05-18T04:57:05.429Z,11.1
2023-05-18T04:58:20.732Z,11.1
2023-05-18T04:59:36.984Z,11.2
2023-05-18T05:00:53.228Z,10.6
2023-05-18T05:02:09.477Z,10.5
2023-05-18T05:03:25.731Z,11.2
2023-05-18T05:04:41.981Z,11.1
2023-05-18T05:05:58.231Z,10.9
2023-05-18T05:07:09.000Z,10.8
2023-05-18T05:08:30.722Z,11
2023-05-18T05:09:46.971Z,10.6
2023-05-18T05:11:03.221Z,11.2
2023-05-18T05:12:19.473Z,11.2
2023-05-18T05:13:35.722Z,11.5
2023-05-18T05:14:51.026Z,11.3
2023-05-18T05:16:07.280Z,11.7
2023-05-18T05:17:23.519Z,11.7
2023-05-18T05:18:39.769Z,11.7
2023-05-18T05:19:56.023Z,11.5
2023-05-18T05:21:12.267Z,12.3
2023-05-18T05:22:28.519Z,12.6
2023-05-18T05:23:44.764Z,12
2023-05-18T05:25:01.016Z,12.1
2023-05-18T05:26:17.264Z,12.1
2023-05-18T05:27:33.515Z,12.2
2023-05-18T05:28:49.766Z,12
2023-05-18T05:30:06.007Z,12.6
2023-05-18T05:31:22.262Z,11.8
2023-05-18T05:32:37.559Z,12.6
2023-05-18T05:33:53.810Z,12.3
2023-05-18T05:35:05.000Z,12.3
2023-05-18T05:36:26.312Z,11.5
2023-05-18T05:37:42.551Z,11.7
2023-05-18T05:38:58.805Z,12.3
2023-05-18T05:40:15.059Z,12.3
2023-05-18T05:41:31.301Z,12.4
2023-05-18T05:42:47.556Z,12.5
2023-05-18T05:44:03.804Z,12.7
2023-05-18T05:45:20.054Z,12.8
2023-05-18T05:46:36.295Z,13.2
2023-05-18T05:47:52.554Z,13.8
2023-05-18T05:49:07.852Z,13.9
2023-05-18T05:50:24.103Z,14.1
2023-05-18T05:52:56.625Z,15.7
2023-05-18T05:54:12.872Z,15.7
2023-05-18T05:55:29.124Z,15.7
2023-05-18T05:56:45.378Z,15.5
2023-05-18T05:58:01.624Z,15.4
2023-05-18T05:59:17.872Z,16
2023-05-18T06:00:34.116Z,15.6
2023-05-18T06:01:50.363Z,15.4
2023-05-18T06:03:06.614Z,13.7
2023-05-18T06:04:22.860Z,13.8
2023-05-18T06:05:33.000Z,13.9
2023-05-18T06:06:54.431Z,13.5
2023-05-18T06:08:10.683Z,13.7
2023-05-18T06:09:26.930Z,14.5
2023-05-18T06:10:38.000Z,14.5
2023-05-18T06:11:59.425Z,14.2
2023-05-18T06:13:15.671Z,14.4
2023-05-18T06:14:31.927Z,14.3
2023-05-18T06:15:48.167Z,14.3
2023-05-18T06:17:04.426Z,14
2023-05-18T06:18:20.672Z,14
2023-05-18T06:19:36.916Z,13.8
2023-05-18T06:20:53.178Z,14.1
2023-05-18T06:22:09.426Z,13.9
2023-05-18T06:23:25.664Z,13.9
2023-05-18T06:25:57.211Z,14.3
2023-05-18T06:27:13.460Z,13.7
2023-05-18T06:28:29.707Z,14.1
2023-05-18T06:29:45.961Z,14
2023-05-18T06:31:02.201Z,14.6
2023-05-18T06:32:18.452Z,14.2
2023-05-18T06:33:34.704Z,14.6
2023-05-18T06:34:50.951Z,14.5
2023-05-18T06:36:07.203Z,14.8
2023-05-18T06:37:23.455Z,14.9
2023-05-18T06:38:39.695Z,14.5
2023-05-18T06:39:55.950Z,14.7
2023-05-18T06:41:11.245Z,14.7
2023-05-18T06:42:27.487Z,15
2023-05-18T06:43:43.745Z,14.6
2023-05-18T06:44:55.000Z,14.7
2023-05-18T06:46:16.241Z,14.6
2023-05-18T06:47:32.501Z,15.5
2023-05-18T06:48:48.741Z,15.6
2023-05-18T06:50:04.984Z,15.6
2023-05-18T06:51:21.236Z,15.5
2023-05-18T06:52:37.479Z,15.5
2023-05-18T06:53:53.729Z,15.2
2023-05-18T06:55:09.979Z,15.4
2023-05-18T06:56:26.227Z,15
2023-05-18T06:57:41.528Z,15.1
2023-05-18T06:58:57.769Z,15.6
2023-05-18T07:00:14.019Z,15.3
2023-05-18T07:01:30.269Z,15.5
2023-05-18T07:02:46.527Z,15.7
2023-05-18T07:04:02.762Z,15.4
2023-05-18T07:05:19.021Z,16
2023-05-18T07:07:51.522Z,15.4
2023-05-18T07:09:07.769Z,15.4
2023-05-18T07:10:24.011Z,15.9
2023-05-18T07:11:40.264Z,15.7
2023-05-18T07:12:56.508Z,15.6
2023-05-18T07:14:12.755Z,15.7
2023-05-18T07:15:28.067Z,15.7
2023-05-18T07:16:44.315Z,15.8
2023-05-18T07:18:00.559Z,15.7
2023-05-18T07:19:16.806Z,16.4
2023-05-18T07:20:33.080Z,15.9
2023-05-18T07:21:49.308Z,16
2023-05-18T07:23:05.553Z,15.9
2023-05-18T07:24:21.806Z,16.2
2023-05-18T07:25:38.059Z,15.8
2023-05-18T07:26:54.305Z,15.9
2023-05-18T07:28:10.553Z,15.7
2023-05-18T07:29:26.805Z,15.5
2023-05-18T07:30:43.057Z,15.8
2023-05-18T07:31:59.300Z,16.2
2023-05-18T07:33:15.545Z,16.2
2023-05-18T07:34:30.852Z,15.9
2023-05-18T07:35:47.108Z,16.1
2023-05-18T07:37:03.358Z,16
2023-05-18T07:38:19.608Z,16.1
2023-05-18T07:39:35.847Z,16.2
2023-05-18T07:40:52.098Z,16.3
2023-05-18T07:42:08.345Z,15.9
2023-05-18T07:44:40.849Z,16.2
2023-05-18T07:45:57.092Z,16.2
2023-05-18T07:47:13.337Z,16.2
2023-05-18T07:48:29.591Z,15.3
2023-05-18T07:49:45.839Z,15.9
2023-05-18T07:51:01.152Z,16.2
2023-05-18T07:52:17.388Z,16.2
2023-05-18T07:53:33.644Z,15.9
2023-05-18T07:54:49.893Z,16.1
2023-05-18T07:56:06.144Z,16.6
2023-05-18T07:57:17.000Z,16
2023-05-18T07:58:38.637Z,16.2
2023-05-18T07:59:54.886Z,16.3
2023-05-18T08:01:11.126Z,16.2
2023-05-18T08:02:27.378Z,16
2023-05-18T08:03:43.636Z,16.2
2023-05-18T08:04:59.881Z,16
2023-05-18T08:06:16.132Z,16.2
2023-05-18T08:07:31.428Z,16.5
2023-05-18T08:08:47.684Z,16.5
2023-05-18T08:10:03.928Z,16.4
2023-05-18T08:11:20.173Z,16.3
2023-05-18T08:12:36.428Z,16.5
2023-05-18T08:13:52.671Z,16.5
2023-05-18T08:15:08.923Z,16.5
2023-05-18T08:16:25.173Z,16.5
2023-05-18T08:17:41.432Z,16.5
2023-05-18T08:18:57.667Z,16.5
2023-05-18T08:20:13.912Z,16.6
2023-05-18T08:21:30.172Z,16.7
2023-05-18T08:22:46.408Z,16.6
2023-05-18T08:24:01.724Z,16.6
2023-05-18T08:25:17.977Z,16.6
2023-05-18T08:26:34.224Z,16.8
2023-05-18T08:27:50.473Z,16.8
2023-05-18T08:29:06.715Z,16.7
2023-05-18T08:30:22.975Z,16.5
2023-05-18T08:31:39.220Z,16.6
2023-05-18T08:32:55.466Z,16.9
2023-05-18T08:34:11.711Z,16.6
2023-05-18T08:35:27.965Z,16.7
2023-05-18T08:36:44.213Z,16.7
2023-05-18T08:38:00.462Z,16.6
2023-05-18T08:39:16.707Z,17
2023-05-18T08:40:32.013Z,16.5
2023-05-18T08:41:48.261Z,16.7
2023-05-18T08:43:04.513Z,16.5
2023-05-18T08:44:20.756Z,16.6
2023-05-18T08:45:37.000Z,16.5
2023-05-18T08:46:53.253Z,16.8
2023-05-18T08:48:09.501Z,16.3
2023-05-18T08:49:25.750Z,16.4
2023-05-18T08:50:42.008Z,16.9
2023-05-18T08:51:58.245Z,16.5
2023-05-18T08:53:14.504Z,16.6
2023-05-18T08:54:30.738Z,16.5
2023-05-18T08:55:46.993Z,17
2023-05-18T08:57:02.295Z,17.1
2023-05-18T08:58:18.546Z,17.1
2023-05-18T08:59:34.801Z,17
2023-05-18T09:00:51.052Z,16.8
2023-05-18T09:02:07.298Z,17.3
2023-05-18T09:03:23.541Z,16.8
2023-05-18T09:04:39.789Z,16.9
2023-05-18T09:05:56.043Z,16.6
2023-05-18T09:07:12.284Z,17.4
2023-05-18T09:09:44.792Z,17.1
2023-05-18T09:11:01.031Z,16.8
2023-05-18T09:12:17.277Z,16.7
2023-05-18T09:13:33.533Z,16.9
2023-05-18T09:14:48.837Z,17.3
2023-05-18T09:16:05.086Z,17.3
2023-05-18T09:17:21.336Z,17.2
2023-05-18T09:18:37.588Z,16.9
2023-05-18T09:19:53.828Z,16.8
2023-05-18T09:21:10.090Z,17
2023-05-18T09:22:26.334Z,16.9
2023-05-18T09:23:37.000Z,16.8
2023-05-18T09:24:58.829Z,17
2023-05-18T09:26:15.076Z,16.9
2023-05-18T09:27:31.325Z,16
2023-05-18T09:28:47.574Z,16.5
2023-05-18T09:30:03.813Z,16.8
2023-05-18T09:31:19.118Z,16.4
2023-05-18T09:32:30.000Z,17.3
2023-05-18T09:33:51.616Z,17
2023-05-18T09:35:07.875Z,16.9
2023-05-18T09:36:24.116Z,16.5
2023-05-18T09:37:40.362Z,16.4
2023-05-18T09:38:56.613Z,16.7
2023-05-18T09:40:12.864Z,16.5
2023-05-18T09:41:29.115Z,17.3
2023-05-18T09:42:45.361Z,17
2023-05-18T09:44:01.611Z,17.1
2023-05-18T09:45:17.857Z,17.4
2023-05-18T09:46:34.102Z,17.2
2023-05-18T09:47:49.410Z,17.4
2023-05-18T09:49:05.664Z,17.1
2023-05-18T09:50:21.905Z,17.1
2023-05-18T09:51:38.157Z,17
2023-05-18T09:52:54.403Z,17
2023-05-18T09:54:10.660Z,19.6
2023-05-18T09:55:26.902Z,17.5
2023-05-18T09:56:43.152Z,17.1
2023-05-18T09:57:59.398Z,16.8
2023-05-18T09:59:15.649Z,16.9
2023-05-18T10:00:31.905Z,17.2
2023-05-18T10:01:48.151Z,17.4
2023-05-18T10:03:04.404Z,16.8
2023-05-18T10:04:19.702Z,17
2023-05-18T10:05:35.950Z,17
2023-05-18T10:06:52.207Z,17.3
2023-05-18T10:08:03.000Z,17.3
2023-05-18T10:09:24.699Z,17.3
2023-05-18T10:10:40.952Z,17.4
2023-05-18T10:11:57.192Z,17.4
2023-05-18T10:13:13.448Z,17
2023-05-18T10:14:29.695Z,16.7
2023-05-18T10:15:45.938Z,17.1
2023-05-18T10:18:18.434Z,17
2023-05-18T10:19:34.689Z,17.3
2023-05-18T10:20:50.003Z,17.3
2023-05-18T10:22:06.259Z,17.2
2023-05-18T10:23:22.511Z,17
2023-05-18T10:24:38.748Z,17
2023-05-18T10:25:54.999Z,17.5
2023-05-18T10:27:11.244Z,17.4
2023-05-18T10:28:27.499Z,17
2023-05-18T10:29:43.749Z,16.9
2023-05-18T10:31:00.003Z,17
2023-05-18T10:32:16.242Z,17
2023-05-18T10:33:32.495Z,17.1
2023-05-18T10:34:48.739Z,16.6
2023-05-18T10:36:04.988Z,16.8
2023-05-18T10:37:20.297Z,16.9
2023-05-18T10:38:36.548Z,17.2
2023-05-18T10:39:52.793Z,16.7
2023-05-18T10:41:09.051Z,16.3
2023-05-18T10:42:25.293Z,16.9
2023-05-18T10:43:41.539Z,17.1
2023-05-18T10:44:57.787Z,17.2
2023-05-18T10:46:14.037Z,17.3
2023-05-18T10:47:30.284Z,16.5
2023-05-18T10:48:46.532Z,16.8
2023-05-18T10:50:02.782Z,16.9
2023-05-18T10:51:19.031Z,17
2023-05-18T10:52:35.283Z,16.3
2023-05-18T10:53:50.588Z,16.4
2023-05-18T10:55:06.846Z,16.9
2023-05-18T10:56:23.085Z,16.8
2023-05-18T10:57:39.342Z,17
2023-05-18T10:58:55.588Z,16.6
2023-05-18T11:00:11.835Z,17.1
2023-05-18T11:01:28.086Z,17
2023-05-18T11:02:44.330Z,17.5
2023-05-18T11:04:00.586Z,16.7
2023-05-18T11:05:16.833Z,17
2023-05-18T11:06:33.076Z,17.4
2023-05-18T11:07:49.339Z,17
2023-05-18T11:09:05.572Z,17.1
2023-05-18T11:10:20.879Z,17
2023-05-18T11:11:37.136Z,17
2023-05-18T11:12:53.384Z,17.1
2023-05-18T11:14:04.000Z,17.3
2023-05-18T11:15:20.000Z,16.8
2023-05-18T11:16:42.131Z,17.1
2023-05-18T11:17:58.375Z,17.2
2023-05-18T11:19:14.624Z,17.2
2023-05-18T11:20:30.881Z,16.7
2023-05-18T11:21:47.122Z,16.7
2023-05-18T11:23:03.380Z,16.8
2023-05-18T11:24:19.620Z,17.1
2023-05-18T11:25:35.870Z,16.8
2023-05-18T11:26:51.178Z,17
2023-05-18T11:28:07.427Z,17.2
2023-05-18T11:29:23.679Z,16.5
2023-05-18T11:30:39.927Z,16.9
2023-05-18T11:33:12.425Z,16.5
2023-05-18T11:35:44.934Z,17
2023-05-18T11:37:01.176Z,17.3
2023-05-18T11:38:17.432Z,16.8
2023-05-18T11:39:33.699Z,16.5
2023-05-18T11:40:49.927Z,16.7
2023-05-18T11:42:06.185Z,16.8
2023-05-18T11:43:22.432Z,16.8
2023-05-18T11:44:37.738Z,16.7
2023-05-18T11:45:54.000Z,16.7
2023-05-18T11:47:10.234Z,17
2023-05-18T11:48:26.490Z,16.4
2023-05-18T11:49:42.743Z,17.2
2023-05-18T11:52:15.244Z,16.9
2023-05-18T11:53:30.572Z,17.1
2023-05-18T11:54:40.000Z,16.5
2023-05-18T11:56:02.124Z,16.7
2023-05-18T11:57:18.375Z,16.3
2023-05-18T11:58:34.628Z,16.4
2023-05-18T11:59:50.881Z,16.4
2023-05-18T12:01:07.138Z,16.5
2023-05-18T12:02:23.381Z,16.3
2023-05-18T12:03:39.625Z,16.6
2023-05-18T12:04:55.880Z,16.7
2023-05-18T12:06:12.131Z,17.1
2023-05-18T12:07:27.467Z,16.6
2023-05-18T12:08:42.770Z,16.6
2023-05-18T12:09:59.021Z,16.5
2023-05-18T12:12:31.524Z,16.6
2023-05-18T12:13:47.768Z,16.6
2023-05-18T12:14:58.000Z,16.6
2023-05-18T12:16:20.273Z,16.6
2023-05-18T12:17:36.517Z,16.9
2023-05-18T12:18:52.766Z,16.5
2023-05-18T12:20:09.023Z,16.8
2023-05-18T12:21:25.283Z,16.8
2023-05-18T12:22:41.522Z,16.6
2023-05-18T12:23:57.769Z,16.8
2023-05-18T12:25:13.067Z,16.6
2023-05-18T12:26:29.314Z,16.8
2023-05-18T12:27:45.566Z,17
2023-05-18T12:28:56.000Z,16.7
2023-05-18T12:30:18.074Z,16.7
2023-05-18T12:31:34.321Z,16.6
2023-05-18T12:32:50.566Z,16.7
2023-05-18T12:34:06.822Z,16.7
2023-05-18T12:35:23.072Z,17
2023-05-18T12:36:39.337Z,16.9
2023-05-18T12:37:55.572Z,17.4
2023-05-18T12:39:11.824Z,16.9
2023-05-18T12:40:28.079Z,16.9
2023-05-18T12:41:38.000Z,17.3
2023-05-18T12:42:59.623Z,16.9
2023-05-18T12:44:15.876Z,16.9
2023-05-18T12:45:27.000Z,16.9
2023-05-18T12:46:48.378Z,17.1
2023-05-18T12:47:59.000Z,16.9
2023-05-18T12:49:20.880Z,17.3
2023-05-18T12:50:37.125Z,17.2
2023-05-18T12:51:53.379Z,17.3
2023-05-18T12:53:09.622Z,17.4
2023-05-18T12:54:25.876Z,17.4
2023-05-18T12:55:42.122Z,17.5
2023-05-18T12:56:58.370Z,17.3
2023-05-18T12:58:13.686Z,17.5
2023-05-18T12:59:29.935Z,17.8
2023-05-18T13:00:46.182Z,18.1
2023-05-18T13:02:02.434Z,17.8
2023-05-18T13:03:18.678Z,18
2023-05-18T13:04:34.937Z,18.4
2023-05-18T13:05:51.186Z,18.7
2023-05-18T13:07:07.430Z,18.6
2023-05-18T13:08:23.681Z,18.7
2023-05-18T13:09:39.932Z,17.9
2023-05-18T13:10:56.178Z,17.6
2023-05-18T13:12:12.429Z,17.3
2023-05-18T13:13:28.683Z,17.3
2023-05-18T13:14:43.983Z,17.7
2023-05-18T13:16:00.235Z,17.8
2023-05-18T13:17:16.490Z,17.9
2023-05-18T13:18:32.738Z,18.2
2023-05-18T13:19:48.985Z,18.2
2023-05-18T13:21:05.234Z,17.7
2023-05-18T13:22:21.488Z,17.8
2023-05-18T13:23:37.745Z,18
2023-05-18T13:24:53.980Z,17.9
2023-05-18T13:26:05.000Z,17.6
2023-05-18T13:27:26.486Z,17.8
2023-05-18T13:28:42.735Z,17.9
2023-05-18T13:29:58.986Z,18
2023-05-18T13:31:14.297Z,17.9
2023-05-18T13:32:30.550Z,18
2023-05-18T13:33:46.795Z,17.8
2023-05-18T13:35:03.045Z,17.9
2023-05-18T13:36:19.296Z,17.9
2023-05-18T13:37:35.540Z,17.9
2023-05-18T13:38:51.789Z,18.2
2023-05-18T13:40:08.049Z,18
2023-05-18T13:41:24.286Z,18.2
2023-05-18T13:42:35.000Z,18.2
2023-05-18T13:43:56.792Z,17.6
2023-05-18T13:46:29.295Z,17.6
2023-05-18T13:47:44.595Z,17.1
2023-05-18T13:49:00.855Z,17.3
2023-05-18T13:50:11.000Z,17.7
2023-05-18T13:51:33.346Z,18.1
2023-05-18T13:52:49.596Z,17.7
2023-05-18T13:54:05.852Z,17.7
2023-05-18T13:55:22.100Z,17.8
2023-05-18T13:56:38.349Z,18.4
2023-05-18T13:57:54.594Z,17.9
2023-05-18T13:59:10.847Z,18
2023-05-18T14:00:27.095Z,17.9
2023-05-18T14:01:43.343Z,17.9
2023-05-18T14:02:59.590Z,17.9
2023-05-18T14:04:09.000Z,18
2023-05-18T14:05:31.157Z,18.2
2023-05-18T14:06:47.398Z,18.3
2023-05-18T14:08:03.650Z,18.1
2023-05-18T14:09:19.902Z,17.6
2023-05-18T14:10:36.148Z,17.4
2023-05-18T14:11:52.405Z,17.4
2023-05-18T14:13:08.654Z,17.7
2023-05-18T14:14:24.910Z,17.8
2023-05-18T14:15:41.143Z,17.9
2023-05-18T14:16:57.400Z,18
2023-05-18T14:18:13.645Z,18.1
2023-05-18T14:19:29.903Z,17.6
2023-05-18T14:20:45.203Z,17.8
2023-05-18T14:22:01.451Z,17.4
2023-05-18T14:23:12.000Z,17.7
2023-05-18T14:24:33.951Z,17.6
2023-05-18T14:25:50.201Z,17.5
2023-05-18T14:27:06.448Z,17.7
2023-05-18T14:28:22.708Z,17.8
2023-05-18T14:29:38.952Z,17.4
2023-05-18T14:30:55.194Z,16.8
2023-05-18T14:32:11.451Z,17.3
2023-05-18T14:33:27.697Z,17
2023-05-18T14:34:43.953Z,17.6
2023-05-18T14:35:59.265Z,17.2
2023-05-18T14:37:15.519Z,18.3
2023-05-18T14:38:31.758Z,17.5
2023-05-18T14:39:48.019Z,17.3
2023-05-18T14:41:04.261Z,17.5
2023-05-18T14:42:15.000Z,17.4
2023-05-18T14:43:36.761Z,17.4
2023-05-18T14:44:53.013Z,17.4
2023-05-18T14:46:09.261Z,17.4
2023-05-18T14:47:25.517Z,17.3
2023-05-18T14:48:41.762Z,17.2
2023-05-18T14:49:58.010Z,17.4
2023-05-18T14:51:14.259Z,17.2
2023-05-18T14:52:30.518Z,17.3
2023-05-18T14:53:46.763Z,17.3
2023-05-18T14:55:02.059Z,17.4
2023-05-18T14:56:18.309Z,17.3
2023-05-18T14:57:34.570Z,17
2023-05-18T14:58:50.814Z,17.5
2023-05-18T15:00:07.069Z,16.8
2023-05-18T15:02:39.563Z,17.4
2023-05-18T15:03:55.816Z,17.6
2023-05-18T15:05:12.052Z,17.2
2023-05-18T15:06:28.311Z,17.2
2023-05-18T15:07:44.558Z,17.4
2023-05-18T15:09:00.811Z,17.4
2023-05-18T15:10:17.060Z,17.1
2023-05-18T15:11:32.363Z,17.4
2023-05-18T15:12:48.614Z,17.3
2023-05-18T15:14:04.863Z,17.2
2023-05-18T15:15:21.118Z,17.5
2023-05-18T15:16:37.357Z,17.2
2023-05-18T15:17:53.603Z,17.1
2023-05-18T15:19:04.000Z,17.5
2023-05-18T15:20:20.000Z,17.3
2023-05-18T15:21:42.361Z,17.4
2023-05-18T15:22:58.609Z,17.8
2023-05-18T15:24:14.857Z,17.6
2023-05-18T15:25:31.113Z,17.8
2023-05-18T15:26:47.348Z,17.7
2023-05-18T15:28:02.668Z,17.4
2023-05-18T15:29:18.908Z,17.8
2023-05-18T15:30:35.163Z,17.4
2023-05-18T15:31:51.410Z,17.5
2023-05-18T15:33:07.659Z,17.6
2023-05-18T15:34:23.904Z,17.9
2023-05-18T15:35:40.151Z,17.5
2023-05-18T15:36:56.405Z,19.1
2023-05-18T15:38:12.658Z,17.9
2023-05-18T15:39:23.000Z,18.5
2023-05-18T15:40:45.153Z,18.5
2023-05-18T15:42:01.406Z,18.8
2023-05-18T15:43:17.653Z,18.5
2023-05-18T15:44:32.955Z,18
2023-05-18T15:45:49.203Z,18.5
2023-05-18T15:47:05.455Z,18.5
2023-05-18T15:48:21.705Z,17.7
2023-05-18T15:49:37.949Z,18.3
2023-05-18T15:50:54.209Z,18
2023-05-18T15:52:10.458Z,17.8
2023-05-18T15:53:26.705Z,17.9
2023-05-18T15:54:42.950Z,19
2023-05-18T15:55:59.205Z,18.5
2023-05-18T15:57:15.454Z,19.3
2023-05-18T15:58:31.694Z,18.8
2023-05-18T15:59:42.000Z,20.3
2023-05-18T16:01:03.257Z,19.4
2023-05-18T16:02:19.523Z,18.4
2023-05-18T16:03:35.750Z,18.6
2023-05-18T16:04:52.009Z,18.3
2023-05-18T16:06:08.256Z,20.2
2023-05-18T16:07:24.504Z,18.6
2023-05-18T16:08:40.754Z,17.8
2023-05-18T16:09:57.001Z,20.7
2023-05-18T16:11:13.248Z,20.3
2023-05-18T16:12:29.506Z,25.8
2023-05-18T16:13:45.750Z,23.3
2023-05-18T16:15:02.006Z,18.8
2023-05-18T16:16:18.254Z,18.2
2023-05-18T16:17:28.000Z,18.5
2023-05-18T16:18:49.804Z,18.4
2023-05-18T16:20:06.062Z,18.1
2023-05-18T16:21:22.310Z,18.3
2023-05-18T16:22:38.568Z,18
2023-05-18T16:23:54.809Z,18
2023-05-18T16:25:11.048Z,17.6
2023-05-18T16:26:27.308Z,18.1
2023-05-18T16:27:43.552Z,18.1
2023-05-18T16:28:59.807Z,17.9
2023-05-18T16:30:16.059Z,17.1
2023-05-18T16:31:32.304Z,17.7
2023-05-18T16:32:48.559Z,17.5
2023-05-18T16:34:03.875Z,17.8
2023-05-18T16:35:20.119Z,18.2
2023-05-18T16:36:31.000Z,18
2023-05-18T16:37:52.612Z,17.8
2023-05-18T16:39:08.856Z,17.4
2023-05-18T16:40:25.104Z,18.4
2023-05-18T16:41:41.369Z,18.5
2023-05-18T16:42:57.607Z,18.3
2023-05-18T16:44:13.850Z,18.4
2023-05-18T16:45:30.116Z,17.8
2023-05-18T16:46:46.363Z,18.2
2023-05-18T16:48:02.604Z,18
2023-05-18T16:49:18.854Z,17.9
2023-05-18T16:50:34.167Z,17.7
2023-05-18T16:51:50.409Z,17.8
2023-05-18T16:53:06.662Z,17.8
2023-05-18T16:54:22.913Z,17.3
2023-05-18T16:55:33.000Z,17.7
2023-05-18T16:56:55.413Z,17.5
2023-05-18T16:58:11.662Z,17.7
2023-05-18T16:59:27.908Z,17.9
2023-05-18T17:00:44.162Z,18
2023-05-18T17:02:00.413Z,18.3
2023-05-18T17:03:16.668Z,18.1
2023-05-18T17:04:32.910Z,18
2023-05-18T17:05:49.165Z,17.8
2023-05-18T17:07:04.464Z,18.1
2023-05-18T17:08:20.720Z,18.1
2023-05-18T17:09:36.965Z,17.9
2023-05-18T17:10:53.223Z,17.8
2023-05-18T17:12:09.462Z,18
2023-05-18T17:13:25.720Z,18
2023-05-18T17:14:41.962Z,18.1
2023-05-18T17:15:58.217Z,18
2023-05-18T17:17:14.468Z,18
2023-05-18T17:18:30.713Z,18.2
2023-05-18T17:19:46.964Z,17.5
2023-05-18T17:21:03.218Z,18.2
2023-05-18T17:22:19.465Z,18.2